sensor_id;sensor_type;location;lat;lon;timestamp;pressure;altitude;pressure_sealevel;temperature;humidity
74334;BME280;62753;40.394;-80.022;2023-04-08T00:00:04;98672.93;;;12.64;18.40
74334;BME280;62753;40.394;-80.022;2023-04-08T00:02:27;98669.25;;;12.83;17.55
74334;BME280;62753;40.394;-80.022;2023-04-08T00:04:53;98664.10;;;12.85;17.04
74334;BME280;62753;40.394;-80.022;2023-04-08T00:07:18;98670.55;;;12.84;17.33
74334;BME280;62753;40.394;-80.022;2023-04-08T00:09:44;98671.78;;;12.69;16.97
74334;BME280;62753;40.394;-80.022;2023-04-08T00:12:09;98679.17;;;12.78;17.27
74334;BME280;62753;40.394;-80.022;2023-04-08T00:14:35;98681.19;;;13.19;16.55
74334;BME280;62753;40.394;-80.022;2023-04-08T00:17:00;98679.86;;;12.29;17.22
74334;BME280;62753;40.394;-80.022;2023-04-08T00:19:26;98672.37;;;12.95;17.15
74334;BME280;62753;40.394;-80.022;2023-04-08T00:21:51;98684.02;;;12.85;18.12
74334;BME280;62753;40.394;-80.022;2023-04-08T00:24:17;98684.21;;;13.09;17.71
74334;BME280;62753;40.394;-80.022;2023-04-08T00:26:42;98695.88;;;12.84;18.66
74334;BME280;62753;40.394;-80.022;2023-04-08T00:29:08;98709.14;;;12.53;18.65
74334;BME280;62753;40.394;-80.022;2023-04-08T00:31:33;98707.41;;;12.33;18.24
74334;BME280;62753;40.394;-80.022;2023-04-08T00:33:59;98706.18;;;12.11;19.32
74334;BME280;62753;40.394;-80.022;2023-04-08T00:36:24;98712.89;;;12.23;18.87
74334;BME280;62753;40.394;-80.022;2023-04-08T00:38:49;98713.75;;;11.65;18.74
74334;BME280;62753;40.394;-80.022;2023-04-08T00:41:15;98714.66;;;11.64;18.81
74334;BME280;62753;40.394;-80.022;2023-04-08T00:43:41;98712.39;;;11.71;18.75
74334;BME280;62753;40.394;-80.022;2023-04-08T00:46:06;98713.99;;;11.98;18.73
74334;BME280;62753;40.394;-80.022;2023-04-08T00:48:31;98712.32;;;11.93;18.43
74334;BME280;62753;40.394;-80.022;2023-04-08T00:50:57;98715.19;;;11.71;19.47
74334;BME280;62753;40.394;-80.022;2023-04-08T00:53:23;98717.00;;;11.95;19.04
74334;BME280;62753;40.394;-80.022;2023-04-08T00:55:48;98721.24;;;12.23;19.08
74334;BME280;62753;40.394;-80.022;2023-04-08T00:58:14;98721.75;;;11.98;18.44
74334;BME280;62753;40.394;-80.022;2023-04-08T01:00:42;98717.33;;;11.68;19.13
74334;BME280;62753;40.394;-80.022;2023-04-08T01:03:09;98712.69;;;11.48;18.82
74334;BME280;62753;40.394;-80.022;2023-04-08T01:05:39;98716.02;;;11.82;18.99
74334;BME280;62753;40.394;-80.022;2023-04-08T01:07:57;98719.13;;;11.17;18.98
74334;BME280;62753;40.394;-80.022;2023-04-08T01:10:23;98718.65;;;11.23;19.18
74334;BME280;62753;40.394;-80.022;2023-04-08T01:12:51;98719.12;;;11.28;18.73
74334;BME280;62753;40.394;-80.022;2023-04-08T01:15:12;98726.35;;;11.11;19.83
74334;BME280;62753;40.394;-80.022;2023-04-08T01:17:38;98734.72;;;11.52;19.50
74334;BME280;62753;40.394;-80.022;2023-04-08T01:20:05;98731.23;;;11.66;18.79
74334;BME280;62753;40.394;-80.022;2023-04-08T01:22:36;98732.02;;;11.26;19.15
74334;BME280;62753;40.394;-80.022;2023-04-08T01:25:00;98730.88;;;11.62;18.67
74334;BME280;62753;40.394;-80.022;2023-04-08T01:27:20;98728.88;;;11.63;18.84
74334;BME280;62753;40.394;-80.022;2023-04-08T01:29:46;98731.83;;;11.58;18.94
74334;BME280;62753;40.394;-80.022;2023-04-08T01:32:11;98734.90;;;11.83;19.42
74334;BME280;62753;40.394;-80.022;2023-04-08T01:34:37;98734.74;;;12.05;18.42
74334;BME280;62753;40.394;-80.022;2023-04-08T01:37:02;98736.53;;;11.44;18.69
74334;BME280;62753;40.394;-80.022;2023-04-08T01:39:28;98734.95;;;11.66;18.43
74334;BME280;62753;40.394;-80.022;2023-04-08T01:41:53;98736.20;;;11.59;18.88
74334;BME280;62753;40.394;-80.022;2023-04-08T01:44:19;98739.17;;;10.86;18.77
74334;BME280;62753;40.394;-80.022;2023-04-08T01:46:44;98742.60;;;11.26;19.78
74334;BME280;62753;40.394;-80.022;2023-04-08T01:49:09;98745.90;;;11.09;19.78
74334;BME280;62753;40.394;-80.022;2023-04-08T01:51:37;98753.66;;;11.09;19.93
74334;BME280;62753;40.394;-80.022;2023-04-08T01:54:01;98750.25;;;10.96;19.87
74334;BME280;62753;40.394;-80.022;2023-04-08T01:56:28;98756.29;;;10.76;19.63
74334;BME280;62753;40.394;-80.022;2023-04-08T01:58:53;98757.42;;;10.21;20.83
74334;BME280;62753;40.394;-80.022;2023-04-08T02:01:19;98755.46;;;9.44;20.99
74334;BME280;62753;40.394;-80.022;2023-04-08T02:03:44;98754.93;;;9.79;21.31
74334;BME280;62753;40.394;-80.022;2023-04-08T02:06:08;98759.78;;;9.11;21.75
74334;BME280;62753;40.394;-80.022;2023-04-08T02:08:34;98755.23;;;9.54;21.67
74334;BME280;62753;40.394;-80.022;2023-04-08T02:10:59;98764.44;;;9.70;21.31
74334;BME280;62753;40.394;-80.022;2023-04-08T02:13:25;98759.17;;;9.80;21.67
74334;BME280;62753;40.394;-80.022;2023-04-08T02:15:52;98761.30;;;9.29;21.96
74334;BME280;62753;40.394;-80.022;2023-04-08T02:18:19;98760.12;;;9.54;21.59
74334;BME280;62753;40.394;-80.022;2023-04-08T02:20:43;98767.84;;;10.30;21.63
74334;BME280;62753;40.394;-80.022;2023-04-08T02:23:12;98769.54;;;9.51;21.52
74334;BME280;62753;40.394;-80.022;2023-04-08T02:25:35;98766.12;;;9.79;21.01
74334;BME280;62753;40.394;-80.022;2023-04-08T02:27:59;98765.59;;;9.33;21.62
74334;BME280;62753;40.394;-80.022;2023-04-08T02:30:24;98764.96;;;9.70;21.37
74334;BME280;62753;40.394;-80.022;2023-04-08T02:32:49;98769.18;;;9.70;21.72
74334;BME280;62753;40.394;-80.022;2023-04-08T02:35:15;98770.67;;;10.17;21.54
74334;BME280;62753;40.394;-80.022;2023-04-08T02:37:40;98766.72;;;10.25;21.33
74334;BME280;62753;40.394;-80.022;2023-04-08T02:42:31;98766.12;;;10.34;21.36
74334;BME280;62753;40.394;-80.022;2023-04-08T02:44:56;98764.61;;;10.85;20.88
74334;BME280;62753;40.394;-80.022;2023-04-08T02:47:22;98761.80;;;10.60;20.78
74334;BME280;62753;40.394;-80.022;2023-04-08T02:49:47;98761.54;;;10.24;21.73
74334;BME280;62753;40.394;-80.022;2023-04-08T02:52:13;98757.46;;;9.44;21.95
74334;BME280;62753;40.394;-80.022;2023-04-08T02:54:38;98751.44;;;9.37;22.01
74334;BME280;62753;40.394;-80.022;2023-04-08T02:57:04;98752.53;;;9.88;21.82
74334;BME280;62753;40.394;-80.022;2023-04-08T02:59:29;98758.57;;;9.09;23.14
74334;BME280;62753;40.394;-80.022;2023-04-08T03:01:55;98759.35;;;9.61;23.33
74334;BME280;62753;40.394;-80.022;2023-04-08T03:04:21;98760.47;;;9.61;22.21
74334;BME280;62753;40.394;-80.022;2023-04-08T03:06:46;98763.20;;;9.94;21.95
74334;BME280;62753;40.394;-80.022;2023-04-08T03:09:12;98758.98;;;10.18;21.42
74334;BME280;62753;40.394;-80.022;2023-04-08T03:11:37;98756.83;;;10.49;21.21
74334;BME280;62753;40.394;-80.022;2023-04-08T03:14:03;98753.83;;;10.01;21.67
74334;BME280;62753;40.394;-80.022;2023-04-08T03:16:28;98754.20;;;10.26;21.86
74334;BME280;62753;40.394;-80.022;2023-04-08T03:18:54;98752.04;;;10.81;21.81
74334;BME280;62753;40.394;-80.022;2023-04-08T03:21:20;98747.95;;;9.79;21.99
74334;BME280;62753;40.394;-80.022;2023-04-08T03:23:45;98752.85;;;9.49;21.72
74334;BME280;62753;40.394;-80.022;2023-04-08T03:26:11;98753.32;;;10.02;21.69
74334;BME280;62753;40.394;-80.022;2023-04-08T03:28:36;98752.22;;;9.67;22.29
74334;BME280;62753;40.394;-80.022;2023-04-08T03:31:02;98760.73;;;9.54;22.59
74334;BME280;62753;40.394;-80.022;2023-04-08T03:33:28;98759.26;;;9.32;22.08
74334;BME280;62753;40.394;-80.022;2023-04-08T03:35:53;98761.26;;;8.69;22.00
74334;BME280;62753;40.394;-80.022;2023-04-08T03:38:19;98774.67;;;9.29;22.60
74334;BME280;62753;40.394;-80.022;2023-04-08T03:40:44;98789.07;;;9.08;22.73
74334;BME280;62753;40.394;-80.022;2023-04-08T03:43:10;98797.42;;;9.14;22.77
74334;BME280;62753;40.394;-80.022;2023-04-08T03:45:35;98799.97;;;9.33;22.97
74334;BME280;62753;40.394;-80.022;2023-04-08T03:48:01;98793.72;;;9.10;22.67
74334;BME280;62753;40.394;-80.022;2023-04-08T03:50:27;98789.38;;;8.99;22.62
74334;BME280;62753;40.394;-80.022;2023-04-08T03:52:52;98787.34;;;9.06;23.53
74334;BME280;62753;40.394;-80.022;2023-04-08T03:55:18;98805.18;;;8.53;23.12
74334;BME280;62753;40.394;-80.022;2023-04-08T03:57:43;98809.40;;;8.69;22.85
74334;BME280;62753;40.394;-80.022;2023-04-08T04:00:10;98809.08;;;9.11;22.69
74334;BME280;62753;40.394;-80.022;2023-04-08T04:02:34;98812.43;;;9.02;23.14
74334;BME280;62753;40.394;-80.022;2023-04-08T04:05:00;98813.80;;;8.95;23.76
74334;BME280;62753;40.394;-80.022;2023-04-08T04:07:25;98806.67;;;8.98;23.54
74334;BME280;62753;40.394;-80.022;2023-04-08T04:09:51;98800.61;;;8.72;23.12
74334;BME280;62753;40.394;-80.022;2023-04-08T04:12:16;98797.41;;;9.12;22.82
74334;BME280;62753;40.394;-80.022;2023-04-08T04:14:43;98800.54;;;9.00;22.98
74334;BME280;62753;40.394;-80.022;2023-04-08T04:17:08;98803.25;;;8.96;23.43
74334;BME280;62753;40.394;-80.022;2023-04-08T04:19:34;98802.57;;;8.71;23.65
74334;BME280;62753;40.394;-80.022;2023-04-08T04:21:59;98798.77;;;8.30;23.73
74334;BME280;62753;40.394;-80.022;2023-04-08T04:24:24;98796.52;;;7.82;24.88
74334;BME280;62753;40.394;-80.022;2023-04-08T04:26:50;98792.56;;;7.84;24.91
74334;BME280;62753;40.394;-80.022;2023-04-08T04:29:16;98787.50;;;7.81;25.11
74334;BME280;62753;40.394;-80.022;2023-04-08T04:31:42;98788.12;;;8.58;24.75
74334;BME280;62753;40.394;-80.022;2023-04-08T04:34:07;98790.50;;;8.72;24.68
74334;BME280;62753;40.394;-80.022;2023-04-08T04:36:32;98791.38;;;8.64;24.39
74334;BME280;62753;40.394;-80.022;2023-04-08T04:38:58;98796.53;;;8.28;24.19
74334;BME280;62753;40.394;-80.022;2023-04-08T04:41:24;98803.29;;;8.24;24.78
74334;BME280;62753;40.394;-80.022;2023-04-08T04:43:49;98803.23;;;8.32;24.17
74334;BME280;62753;40.394;-80.022;2023-04-08T04:46:15;98795.53;;;8.61;24.35
74334;BME280;62753;40.394;-80.022;2023-04-08T04:48:40;98804.49;;;8.46;25.62
74334;BME280;62753;40.394;-80.022;2023-04-08T04:51:06;98807.74;;;8.31;24.78
74334;BME280;62753;40.394;-80.022;2023-04-08T04:53:32;98813.61;;;7.72;25.39
74334;BME280;62753;40.394;-80.022;2023-04-08T04:55:57;98811.18;;;7.95;25.79
74334;BME280;62753;40.394;-80.022;2023-04-08T04:58:23;98815.24;;;7.66;25.18
74334;BME280;62753;40.394;-80.022;2023-04-08T05:00:48;98813.48;;;8.18;25.42
74334;BME280;62753;40.394;-80.022;2023-04-08T05:03:14;98813.21;;;7.22;26.22
74334;BME280;62753;40.394;-80.022;2023-04-08T05:05:39;98813.83;;;7.16;26.81
74334;BME280;62753;40.394;-80.022;2023-04-08T05:08:05;98821.36;;;6.86;27.52
74334;BME280;62753;40.394;-80.022;2023-04-08T05:10:30;98821.16;;;7.46;26.86
74334;BME280;62753;40.394;-80.022;2023-04-08T05:12:56;98814.89;;;7.63;26.60
74334;BME280;62753;40.394;-80.022;2023-04-08T05:15:22;98812.15;;;6.89;27.24
74334;BME280;62753;40.394;-80.022;2023-04-08T05:17:47;98819.69;;;7.25;27.25
74334;BME280;62753;40.394;-80.022;2023-04-08T05:20:13;98820.18;;;6.17;28.76
74334;BME280;62753;40.394;-80.022;2023-04-08T05:22:39;98811.72;;;7.00;28.20
74334;BME280;62753;40.394;-80.022;2023-04-08T05:25:05;98807.95;;;6.89;28.04
74334;BME280;62753;40.394;-80.022;2023-04-08T05:27:30;98812.11;;;6.85;27.72
74334;BME280;62753;40.394;-80.022;2023-04-08T05:29:56;98812.05;;;6.92;27.78
74334;BME280;62753;40.394;-80.022;2023-04-08T05:32:22;98816.45;;;6.87;27.75
74334;BME280;62753;40.394;-80.022;2023-04-08T05:34:47;98817.67;;;7.06;28.03
74334;BME280;62753;40.394;-80.022;2023-04-08T05:37:12;98819.91;;;6.90;28.04
74334;BME280;62753;40.394;-80.022;2023-04-08T05:39:38;98822.92;;;6.85;27.55
74334;BME280;62753;40.394;-80.022;2023-04-08T05:42:04;98818.10;;;7.59;28.02
74334;BME280;62753;40.394;-80.022;2023-04-08T05:44:29;98813.81;;;7.18;27.23
74334;BME280;62753;40.394;-80.022;2023-04-08T05:46:55;98813.78;;;7.09;27.75
74334;BME280;62753;40.394;-80.022;2023-04-08T05:49:21;98811.68;;;7.68;27.48
74334;BME280;62753;40.394;-80.022;2023-04-08T05:51:46;98813.47;;;8.00;27.05
74334;BME280;62753;40.394;-80.022;2023-04-08T05:54:12;98814.38;;;7.49;27.56
74334;BME280;62753;40.394;-80.022;2023-04-08T05:56:37;98816.87;;;7.88;27.03
74334;BME280;62753;40.394;-80.022;2023-04-08T05:59:03;98813.92;;;7.73;27.22
74334;BME280;62753;40.394;-80.022;2023-04-08T06:01:29;98819.37;;;7.83;26.42
74334;BME280;62753;40.394;-80.022;2023-04-08T06:03:54;98822.85;;;7.86;26.77
74334;BME280;62753;40.394;-80.022;2023-04-08T06:06:20;98822.27;;;8.14;26.89
74334;BME280;62753;40.394;-80.022;2023-04-08T06:08:45;98810.77;;;7.26;27.62
74334;BME280;62753;40.394;-80.022;2023-04-08T06:11:11;98805.90;;;7.61;27.59
74334;BME280;62753;40.394;-80.022;2023-04-08T06:13:37;98807.41;;;7.44;28.32
74334;BME280;62753;40.394;-80.022;2023-04-08T06:16:10;98800.73;;;6.91;28.48
74334;BME280;62753;40.394;-80.022;2023-04-08T06:18:28;98808.54;;;6.72;28.84
74334;BME280;62753;40.394;-80.022;2023-04-08T06:20:54;98801.75;;;6.45;28.85
74334;BME280;62753;40.394;-80.022;2023-04-08T06:23:19;98790.90;;;7.27;28.18
74334;BME280;62753;40.394;-80.022;2023-04-08T06:25:45;98787.53;;;7.27;28.23
74334;BME280;62753;40.394;-80.022;2023-04-08T06:28:11;98784.54;;;6.62;28.61
74334;BME280;62753;40.394;-80.022;2023-04-08T06:30:36;98779.53;;;6.42;28.97
74334;BME280;62753;40.394;-80.022;2023-04-08T06:33:02;98781.94;;;6.66;28.65
74334;BME280;62753;40.394;-80.022;2023-04-08T06:35:27;98782.45;;;6.32;29.04
74334;BME280;62753;40.394;-80.022;2023-04-08T06:37:53;98784.11;;;5.62;30.72
74334;BME280;62753;40.394;-80.022;2023-04-08T06:40:19;98779.38;;;5.78;31.23
74334;BME280;62753;40.394;-80.022;2023-04-08T06:42:44;98777.73;;;5.84;30.77
74334;BME280;62753;40.394;-80.022;2023-04-08T06:45:10;98778.87;;;6.26;30.38
74334;BME280;62753;40.394;-80.022;2023-04-08T06:47:35;98783.35;;;6.24;30.29
74334;BME280;62753;40.394;-80.022;2023-04-08T06:50:01;98789.60;;;5.76;31.10
74334;BME280;62753;40.394;-80.022;2023-04-08T06:52:27;98801.66;;;5.47;31.72
74334;BME280;62753;40.394;-80.022;2023-04-08T06:54:53;98799.91;;;5.76;31.21
74334;BME280;62753;40.394;-80.022;2023-04-08T06:57:18;98792.83;;;6.33;30.50
74334;BME280;62753;40.394;-80.022;2023-04-08T06:59:44;98798.29;;;5.60;31.31
74334;BME280;62753;40.394;-80.022;2023-04-08T07:02:10;98802.56;;;5.62;31.02
74334;BME280;62753;40.394;-80.022;2023-04-08T07:04:35;98802.47;;;6.25;30.85
74334;BME280;62753;40.394;-80.022;2023-04-08T07:07:01;98808.69;;;5.99;31.38
74334;BME280;62753;40.394;-80.022;2023-04-08T07:09:26;98808.48;;;6.21;30.10
74334;BME280;62753;40.394;-80.022;2023-04-08T07:11:52;98803.47;;;6.11;30.48
74334;BME280;62753;40.394;-80.022;2023-04-08T07:14:17;98797.03;;;6.02;30.76
74334;BME280;62753;40.394;-80.022;2023-04-08T07:16:43;98796.10;;;5.92;30.94
74334;BME280;62753;40.394;-80.022;2023-04-08T07:19:09;98793.12;;;5.84;31.21
74334;BME280;62753;40.394;-80.022;2023-04-08T07:21:35;98790.51;;;5.88;31.06
74334;BME280;62753;40.394;-80.022;2023-04-08T07:24:00;98791.00;;;6.06;30.53
74334;BME280;62753;40.394;-80.022;2023-04-08T07:26:26;98794.21;;;6.41;30.10
74334;BME280;62753;40.394;-80.022;2023-04-08T07:28:52;98801.13;;;5.90;30.77
74334;BME280;62753;40.394;-80.022;2023-04-08T07:31:17;98805.50;;;5.84;31.05
74334;BME280;62753;40.394;-80.022;2023-04-08T07:33:43;98811.81;;;5.11;32.02
74334;BME280;62753;40.394;-80.022;2023-04-08T07:36:09;98814.26;;;5.70;30.97
74334;BME280;62753;40.394;-80.022;2023-04-08T07:38:34;98809.64;;;6.05;31.19
74334;BME280;62753;40.394;-80.022;2023-04-08T07:40:59;98800.81;;;5.95;30.91
74334;BME280;62753;40.394;-80.022;2023-04-08T07:43:25;98796.62;;;6.22;30.83
74334;BME280;62753;40.394;-80.022;2023-04-08T07:45:51;98802.98;;;6.63;30.06
74334;BME280;62753;40.394;-80.022;2023-04-08T07:48:17;98809.09;;;6.84;29.88
74334;BME280;62753;40.394;-80.022;2023-04-08T07:50:42;98809.49;;;6.61;29.92
74334;BME280;62753;40.394;-80.022;2023-04-08T07:53:08;98810.40;;;6.68;29.18
74334;BME280;62753;40.394;-80.022;2023-04-08T07:55:33;98806.07;;;7.09;29.11
74334;BME280;62753;40.394;-80.022;2023-04-08T07:58:04;98809.84;;;6.22;30.06
74334;BME280;62753;40.394;-80.022;2023-04-08T08:00:25;98811.89;;;6.67;29.95
74334;BME280;62753;40.394;-80.022;2023-04-08T08:02:50;98809.58;;;6.53;30.37
74334;BME280;62753;40.394;-80.022;2023-04-08T08:05:16;98804.83;;;6.13;30.46
74334;BME280;62753;40.394;-80.022;2023-04-08T08:07:42;98802.72;;;6.51;30.09
74334;BME280;62753;40.394;-80.022;2023-04-08T08:10:08;98799.46;;;6.48;30.57
74334;BME280;62753;40.394;-80.022;2023-04-08T08:12:33;98788.18;;;6.47;29.69
74334;BME280;62753;40.394;-80.022;2023-04-08T08:14:58;98788.74;;;5.52;31.00
74334;BME280;62753;40.394;-80.022;2023-04-08T08:17:24;98788.30;;;5.69;31.94
74334;BME280;62753;40.394;-80.022;2023-04-08T08:19:50;98786.34;;;5.74;31.57
74334;BME280;62753;40.394;-80.022;2023-04-08T08:22:16;98784.67;;;4.99;33.23
74334;BME280;62753;40.394;-80.022;2023-04-08T08:24:41;98794.59;;;4.68;33.46
74334;BME280;62753;40.394;-80.022;2023-04-08T08:27:09;98791.98;;;5.09;33.63
74334;BME280;62753;40.394;-80.022;2023-04-08T08:29:32;98798.69;;;4.65;33.57
74334;BME280;62753;40.394;-80.022;2023-04-08T08:31:58;98801.48;;;4.75;34.44
74334;BME280;62753;40.394;-80.022;2023-04-08T08:34:24;98807.31;;;4.89;34.12
74334;BME280;62753;40.394;-80.022;2023-04-08T08:36:50;98802.64;;;4.89;33.70
74334;BME280;62753;40.394;-80.022;2023-04-08T08:39:15;98799.58;;;5.18;32.91
74334;BME280;62753;40.394;-80.022;2023-04-08T08:41:41;98794.23;;;5.83;32.44
74334;BME280;62753;40.394;-80.022;2023-04-08T08:44:07;98800.44;;;4.77;33.92
74334;BME280;62753;40.394;-80.022;2023-04-08T08:46:32;98801.54;;;5.47;32.93
74334;BME280;62753;40.394;-80.022;2023-04-08T08:48:58;98801.47;;;5.52;33.19
74334;BME280;62753;40.394;-80.022;2023-04-08T08:51:24;98803.48;;;4.88;33.70
74334;BME280;62753;40.394;-80.022;2023-04-08T08:53:49;98807.31;;;5.15;34.33
74334;BME280;62753;40.394;-80.022;2023-04-08T08:56:15;98813.16;;;5.12;34.67
74334;BME280;62753;40.394;-80.022;2023-04-08T08:58:40;98813.29;;;4.87;35.00
74334;BME280;62753;40.394;-80.022;2023-04-08T09:03:32;98815.62;;;5.41;33.64
74334;BME280;62753;40.394;-80.022;2023-04-08T09:06:00;98813.50;;;5.72;33.16
74334;BME280;62753;40.394;-80.022;2023-04-08T09:08:25;98819.51;;;6.04;32.62
74334;BME280;62753;40.394;-80.022;2023-04-08T09:10:54;98823.79;;;6.27;32.33
74334;BME280;62753;40.394;-80.022;2023-04-08T09:13:14;98825.87;;;6.39;31.80
74334;BME280;62753;40.394;-80.022;2023-04-08T09:20:31;98824.96;;;6.42;31.04
74334;BME280;62753;40.394;-80.022;2023-04-08T09:23:04;98827.98;;;6.56;30.67
74334;BME280;62753;40.394;-80.022;2023-04-08T09:25:24;98828.31;;;6.65;30.69
74334;BME280;62753;40.394;-80.022;2023-04-08T09:27:49;98826.19;;;6.65;30.44
74334;BME280;62753;40.394;-80.022;2023-04-08T09:30:14;98824.26;;;6.52;30.44
74334;BME280;62753;40.394;-80.022;2023-04-08T09:32:47;98826.44;;;6.72;30.38
74334;BME280;62753;40.394;-80.022;2023-04-08T09:35:05;98829.17;;;6.81;30.67
74334;BME280;62753;40.394;-80.022;2023-04-08T09:37:31;98833.26;;;6.50;30.68
74334;BME280;62753;40.394;-80.022;2023-04-08T09:39:56;98834.22;;;6.91;30.79
74334;BME280;62753;40.394;-80.022;2023-04-08T09:42:22;98840.51;;;6.80;30.21
74334;BME280;62753;40.394;-80.022;2023-04-08T09:44:48;98844.93;;;6.24;31.81
74334;BME280;62753;40.394;-80.022;2023-04-08T09:47:18;98843.11;;;6.51;31.04
74334;BME280;62753;40.394;-80.022;2023-04-08T09:49:45;98832.55;;;6.52;31.28
74334;BME280;62753;40.394;-80.022;2023-04-08T09:52:07;98835.27;;;6.29;31.63
74334;BME280;62753;40.394;-80.022;2023-04-08T09:54:51;98833.59;;;6.27;31.92
74334;BME280;62753;40.394;-80.022;2023-04-08T09:57:00;98839.25;;;6.09;31.79
74334;BME280;62753;40.394;-80.022;2023-04-08T09:59:24;98843.50;;;6.04;31.94
74334;BME280;62753;40.394;-80.022;2023-04-08T10:01:52;98847.69;;;6.39;31.62
74334;BME280;62753;40.394;-80.022;2023-04-08T10:04:17;98849.20;;;6.43;31.47
74334;BME280;62753;40.394;-80.022;2023-04-08T10:06:39;98850.97;;;6.51;31.17
74334;BME280;62753;40.394;-80.022;2023-04-08T10:09:05;98848.56;;;6.16;31.59
74334;BME280;62753;40.394;-80.022;2023-04-08T10:11:30;98847.70;;;6.63;31.51
74334;BME280;62753;40.394;-80.022;2023-04-08T10:13:55;98845.73;;;5.96;31.79
74334;BME280;62753;40.394;-80.022;2023-04-08T10:16:22;98846.10;;;6.23;32.07
74334;BME280;62753;40.394;-80.022;2023-04-08T10:18:46;98845.18;;;6.21;31.91
74334;BME280;62753;40.394;-80.022;2023-04-08T10:28:29;98862.75;;;6.18;31.53
74334;BME280;62753;40.394;-80.022;2023-04-08T10:30:55;98870.50;;;6.66;31.71
74334;BME280;62753;40.394;-80.022;2023-04-08T10:33:22;98868.00;;;6.93;31.40
74334;BME280;62753;40.394;-80.022;2023-04-08T10:35:48;98869.22;;;6.51;31.87
74334;BME280;62753;40.394;-80.022;2023-04-08T10:38:12;98876.39;;;5.99;32.01
74334;BME280;62753;40.394;-80.022;2023-04-08T10:40:38;98883.03;;;6.34;31.51
74334;BME280;62753;40.394;-80.022;2023-04-08T10:43:03;98887.03;;;6.49;31.34
74334;BME280;62753;40.394;-80.022;2023-04-08T10:45:28;98887.11;;;6.74;31.38
74334;BME280;62753;40.394;-80.022;2023-04-08T10:47:54;98889.56;;;5.99;31.63
74334;BME280;62753;40.394;-80.022;2023-04-08T10:50:20;98894.79;;;6.13;31.38
74334;BME280;62753;40.394;-80.022;2023-04-08T10:52:46;98895.58;;;6.81;31.46
74334;BME280;62753;40.394;-80.022;2023-04-08T10:55:11;98899.60;;;6.37;31.89
74334;BME280;62753;40.394;-80.022;2023-04-08T10:57:36;98900.38;;;5.85;32.58
74334;BME280;62753;40.394;-80.022;2023-04-08T11:00:02;98901.25;;;6.61;32.30
74334;BME280;62753;40.394;-80.022;2023-04-08T11:02:32;98899.68;;;6.40;32.25
74334;BME280;62753;40.394;-80.022;2023-04-08T11:04:54;98902.03;;;6.30;32.35
74334;BME280;62753;40.394;-80.022;2023-04-08T11:07:20;98901.84;;;6.23;32.48
74334;BME280;62753;40.394;-80.022;2023-04-08T11:09:44;98904.73;;;6.42;31.54
74334;BME280;62753;40.394;-80.022;2023-04-08T11:12:10;98911.15;;;6.50;31.71
74334;BME280;62753;40.394;-80.022;2023-04-08T11:14:35;98912.01;;;6.65;31.47
74334;BME280;62753;40.394;-80.022;2023-04-08T11:17:01;98906.13;;;6.66;31.96
74334;BME280;62753;40.394;-80.022;2023-04-08T11:19:27;98903.96;;;6.03;32.58
74334;BME280;62753;40.394;-80.022;2023-04-08T11:21:52;98912.62;;;5.96;33.24
74334;BME280;62753;40.394;-80.022;2023-04-08T11:24:19;98911.35;;;5.25;33.94
74334;BME280;62753;40.394;-80.022;2023-04-08T11:26:43;98913.28;;;5.99;33.62
74334;BME280;62753;40.394;-80.022;2023-04-08T11:29:10;98914.61;;;6.34;32.89
74334;BME280;62753;40.394;-80.022;2023-04-08T11:31:35;98918.66;;;5.81;33.59
74334;BME280;62753;40.394;-80.022;2023-04-08T11:34:00;98918.71;;;6.31;33.64
74334;BME280;62753;40.394;-80.022;2023-04-08T11:36:28;98924.55;;;5.99;33.89
74334;BME280;62753;40.394;-80.022;2023-04-08T11:38:53;98929.50;;;5.01;35.22
74334;BME280;62753;40.394;-80.022;2023-04-08T11:41:16;98943.49;;;5.60;34.88
74334;BME280;62753;40.394;-80.022;2023-04-08T11:43:52;98944.33;;;5.31;34.55
74334;BME280;62753;40.394;-80.022;2023-04-08T11:46:09;98944.20;;;5.88;34.24
74334;BME280;62753;40.394;-80.022;2023-04-08T11:48:34;98947.47;;;5.31;35.10
74334;BME280;62753;40.394;-80.022;2023-04-08T11:51:03;98946.90;;;4.62;36.08
74334;BME280;62753;40.394;-80.022;2023-04-08T11:53:25;98951.14;;;5.10;35.23
74334;BME280;62753;40.394;-80.022;2023-04-08T11:55:51;98951.02;;;5.92;34.42
74334;BME280;62753;40.394;-80.022;2023-04-08T11:58:16;98954.69;;;4.85;34.96
74334;BME280;62753;40.394;-80.022;2023-04-08T12:00:41;98961.97;;;5.38;34.81
74334;BME280;62753;40.394;-80.022;2023-04-08T12:03:07;98968.20;;;5.83;35.03
74334;BME280;62753;40.394;-80.022;2023-04-08T12:05:33;98967.38;;;5.35;35.62
74334;BME280;62753;40.394;-80.022;2023-04-08T12:07:58;98970.42;;;4.61;37.22
74334;BME280;62753;40.394;-80.022;2023-04-08T12:10:24;98976.04;;;5.73;35.47
74334;BME280;62753;40.394;-80.022;2023-04-08T12:12:50;98981.25;;;5.27;36.31
74334;BME280;62753;40.394;-80.022;2023-04-08T12:15:15;98978.90;;;5.22;36.12
74334;BME280;62753;40.394;-80.022;2023-04-08T12:17:41;98982.41;;;5.45;35.56
74334;BME280;62753;40.394;-80.022;2023-04-08T12:20:07;98977.36;;;5.79;35.63
74334;BME280;62753;40.394;-80.022;2023-04-08T12:22:32;98975.12;;;5.71;35.19
74334;BME280;62753;40.394;-80.022;2023-04-08T12:24:58;98975.66;;;5.83;35.86
74334;BME280;62753;40.394;-80.022;2023-04-08T12:27:23;98970.87;;;5.34;35.48
74334;BME280;62753;40.394;-80.022;2023-04-08T12:29:48;98972.50;;;6.10;34.99
74334;BME280;62753;40.394;-80.022;2023-04-08T12:32:14;98969.39;;;6.11;34.73
74334;BME280;62753;40.394;-80.022;2023-04-08T12:34:39;98971.71;;;5.81;35.24
74334;BME280;62753;40.394;-80.022;2023-04-08T12:37:05;98969.91;;;6.16;34.87
74334;BME280;62753;40.394;-80.022;2023-04-08T12:39:30;98964.86;;;6.56;34.34
74334;BME280;62753;40.394;-80.022;2023-04-08T12:41:56;98972.31;;;5.92;34.99
74334;BME280;62753;40.394;-80.022;2023-04-08T12:44:26;98971.68;;;5.19;37.04
74334;BME280;62753;40.394;-80.022;2023-04-08T12:46:48;98970.00;;;6.19;35.36
74334;BME280;62753;40.394;-80.022;2023-04-08T12:49:13;98968.66;;;6.17;34.45
74334;BME280;62753;40.394;-80.022;2023-04-08T12:51:38;98967.35;;;5.82;35.53
74334;BME280;62753;40.394;-80.022;2023-04-08T12:54:04;98972.71;;;6.15;35.62